createdAt,value
2022-08-14T00:02:27.169Z,62.93
2022-08-14T00:04:56.360Z,62.47
2022-08-14T00:07:24.217Z,62.53
2022-08-14T00:10:02.024Z,62.17
2022-08-14T00:12:48.065Z,65.12
2022-08-14T00:15:43.300Z,62.93
2022-08-14T00:18:30.384Z,62.86
2022-08-14T00:21:05.020Z,63.13
2022-08-14T00:23:40.206Z,63.16
2022-08-14T00:26:08.418Z,63.55
2022-08-14T00:28:51.452Z,64.00
2022-08-14T00:31:19.800Z,65.14
2022-08-14T00:34:36.957Z,65.17
2022-08-14T00:36:51.439Z,65.59
2022-08-14T00:39:19.701Z,65.11
2022-08-14T00:41:48.345Z,64.99
2022-08-14T00:44:21.542Z,65.50
2022-08-14T00:47:03.625Z,65.31
2022-08-14T00:49:38.380Z,65.41
2022-08-14T00:52:14.170Z,65.67
2022-08-14T00:54:49.891Z,66.41
2022-08-14T00:57:20.016Z,66.15
2022-08-14T00:59:48.679Z,66.84
2022-08-14T01:02:25.004Z,67.00
2022-08-14T01:04:58.391Z,66.60
2022-08-14T01:07:38.909Z,66.99
2022-08-14T01:10:15.191Z,69.59
2022-08-14T01:12:44.516Z,69.43
2022-08-14T01:15:17.089Z,68.48
2022-08-14T01:18:03.659Z,71.13
2022-08-14T01:20:51.429Z,67.74
2022-08-14T01:23:21.718Z,65.24
2022-08-14T01:25:52.342Z,67.32
2022-08-14T01:28:46.162Z,66.00
2022-08-14T01:31:14.287Z,67.75
2022-08-14T01:33:59.691Z,65.68
2022-08-14T01:36:39.354Z,66.03
2022-08-14T01:39:12.937Z,66.77
2022-08-14T01:41:58.302Z,66.48
2022-08-14T01:44:33.476Z,67.25
2022-08-14T01:47:19.579Z,68.11
2022-08-14T01:50:01.139Z,67.95
2022-08-14T01:52:57.769Z,67.77
2022-08-14T01:55:30.742Z,67.66
2022-08-14T01:58:01.809Z,67.98
2022-08-14T02:00:55.045Z,70.73
2022-08-14T02:03:30.216Z,67.52
2022-08-14T02:06:32.098Z,67.50
2022-08-14T02:08:52.921Z,66.76
2022-08-14T02:11:24.686Z,66.60
2022-08-14T02:13:59.748Z,67.31
2022-08-14T02:16:39.566Z,69.21
2022-08-14T02:19:14.680Z,66.94
2022-08-14T02:21:50.306Z,66.65
2022-08-14T02:24:40.129Z,65.88
2022-08-14T02:28:25.302Z,66.10
2022-08-14T02:30:02.074Z,66.72
2022-08-14T02:32:36.170Z,67.38
2022-08-14T02:35:19.150Z,66.35
2022-08-14T02:37:50.185Z,67.35
2022-08-14T02:40:19.641Z,68.00
2022-08-14T02:42:54.677Z,69.17
2022-08-14T02:45:38.747Z,69.79
2022-08-14T02:49:01.528Z,72.22
2022-08-14T02:51:05.188Z,72.98
2022-08-14T02:53:33.618Z,72.71
2022-08-14T02:56:29.453Z,70.78
2022-08-14T02:58:55.666Z,70.02
2022-08-14T03:01:26.179Z,71.27
2022-08-14T03:03:59.541Z,68.89
2022-08-14T03:06:57.185Z,67.26
2022-08-14T03:09:15.568Z,66.06
2022-08-14T03:11:45.057Z,66.96
2022-08-14T03:14:15.461Z,66.77
2022-08-14T03:16:49.315Z,67.04
2022-08-14T03:19:19.763Z,67.31
2022-08-14T03:21:52.905Z,68.34
2022-08-14T03:24:23.350Z,68.95
2022-08-14T03:26:57.444Z,68.59
2022-08-14T03:29:27.872Z,68.43
2022-08-14T03:31:57.628Z,68.81
2022-08-14T03:34:52.648Z,70.22
2022-08-14T03:37:37.978Z,68.67
2022-08-14T03:40:05.148Z,68.47
2022-08-14T03:42:45.504Z,70.27
2022-08-14T03:45:26.134Z,71.25
2022-08-14T03:48:04.917Z,69.54
2022-08-14T03:50:39.707Z,70.23
2022-08-14T03:53:07.787Z,69.03
2022-08-14T03:55:36.998Z,71.05
2022-08-14T03:58:09.358Z,70.88
2022-08-14T04:00:44.837Z,70.98
2022-08-14T04:03:23.568Z,70.85
2022-08-14T04:05:53.607Z,73.07
2022-08-14T04:08:29.791Z,73.09
2022-08-14T04:11:01.193Z,69.58
2022-08-14T04:13:34.429Z,70.39
2022-08-14T04:16:26.098Z,68.62
2022-08-14T04:19:01.234Z,69.03
2022-08-14T04:21:30.860Z,69.80
2022-08-14T04:24:08.227Z,72.03
2022-08-14T04:26:42.162Z,70.93
2022-08-14T04:29:14.890Z,69.89
2022-08-14T04:32:58.864Z,69.64
2022-08-14T04:34:34.159Z,69.34
2022-08-14T04:37:24.603Z,69.43
2022-08-14T04:40:13.637Z,68.74
2022-08-14T04:43:01.791Z,67.00
2022-08-14T04:45:40.818Z,64.25
2022-08-14T04:48:13.703Z,63.29
2022-08-14T04:51:03.549Z,66.22
2022-08-14T04:53:35.371Z,67.19
2022-08-14T04:56:06.189Z,68.31
2022-08-14T04:58:57.648Z,65.18
2022-08-14T05:01:27.026Z,66.85
2022-08-14T05:03:56.078Z,67.21
2022-08-14T05:06:37.154Z,67.06
2022-08-14T05:09:14.165Z,65.52
2022-08-14T05:11:44.263Z,64.91
2022-08-14T05:14:16.670Z,63.27
2022-08-14T05:17:01.833Z,62.35
2022-08-14T05:19:31.938Z,62.48
2022-08-14T05:22:16.811Z,60.80
2022-08-14T05:24:50.628Z,59.53
2022-08-14T05:27:22.691Z,59.42
2022-08-14T05:29:53.802Z,59.08
2022-08-14T05:32:27.454Z,59.48
2022-08-14T05:35:00.254Z,59.63
2022-08-14T05:37:29.620Z,60.38
2022-08-14T05:39:59.439Z,58.08
2022-08-14T05:42:31.716Z,57.95
2022-08-14T05:45:00.426Z,56.81
2022-08-14T05:47:28.642Z,53.66
2022-08-14T05:49:59.751Z,52.61
2022-08-14T05:52:38.344Z,54.52
2022-08-14T05:55:16.896Z,52.00
2022-08-14T05:57:53.745Z,53.75
2022-08-14T06:00:29.278Z,51.68
2022-08-14T06:03:00.660Z,52.37
2022-08-14T06:05:32.371Z,52.56
2022-08-14T06:08:08.576Z,50.48
2022-08-14T06:10:49.990Z,50.82
2022-08-14T06:13:19.070Z,48.89
2022-08-14T06:15:48.379Z,48.97
2022-08-14T06:18:17.683Z,49.54
2022-08-14T06:20:46.879Z,49.86
2022-08-14T06:23:14.697Z,50.92
2022-08-14T06:25:44.840Z,47.95
2022-08-14T06:28:27.415Z,45.90
2022-08-14T06:30:56.328Z,47.39
2022-08-14T06:33:45.791Z,43.47
2022-08-14T06:36:13.474Z,44.39
2022-08-14T06:38:50.194Z,44.95
2022-08-14T06:41:20.594Z,42.62
2022-08-14T06:43:49.541Z,41.07
2022-08-14T06:46:23.216Z,41.66
2022-08-14T06:49:03.111Z,40.82
2022-08-14T06:51:39.069Z,41.35
2022-08-14T06:54:13.540Z,39.30
2022-08-14T06:56:44.374Z,39.69
2022-08-14T06:59:22.319Z,38.63
2022-08-14T07:02:13.393Z,39.33
2022-08-14T07:05:05.539Z,38.93
2022-08-14T07:07:39.130Z,37.49
2022-08-14T07:10:13.224Z,39.27
2022-08-14T07:12:56.365Z,39.79
2022-08-14T07:15:32.566Z,39.40
2022-08-14T07:18:03.704Z,40.00
2022-08-14T07:20:37.288Z,39.22
2022-08-14T07:23:09.196Z,39.91
2022-08-14T07:25:42.153Z,39.68
2022-08-14T07:28:20.728Z,40.14
2022-08-14T07:31:05.098Z,38.08
2022-08-14T07:33:50.320Z,38.86
2022-08-14T07:36:27.246Z,36.72
2022-08-14T07:38:59.758Z,36.03
2022-08-14T07:41:33.671Z,36.13
2022-08-14T07:44:29.438Z,36.69
2022-08-14T07:46:50.991Z,39.40
2022-08-14T07:49:20.318Z,35.55
2022-08-14T07:51:49.322Z,35.56
2022-08-14T07:54:23.650Z,35.27
2022-08-14T07:57:00.687Z,36.71
2022-08-14T07:59:41.949Z,36.66
2022-08-14T08:02:17.377Z,37.48
2022-08-14T08:04:54.040Z,35.72
2022-08-14T08:07:29.960Z,35.98
2022-08-14T08:10:02.076Z,36.08
2022-08-14T08:12:32.379Z,33.74
2022-08-14T08:15:05.636Z,33.86
2022-08-14T08:17:53.229Z,32.35
2022-08-14T08:20:29.352Z,32.41
2022-08-14T08:23:00.579Z,31.72
2022-08-14T08:25:39.524Z,32.71
2022-08-14T08:28:19.899Z,30.03
2022-08-14T08:30:56.833Z,32.05
2022-08-14T08:33:32.067Z,32.57
2022-08-14T08:36:03.648Z,32.89
2022-08-14T08:39:17.704Z,31.77
2022-08-14T08:41:20.001Z,29.92
2022-08-14T08:43:47.770Z,31.22
2022-08-14T08:46:23.393Z,31.95
2022-08-14T08:51:33.211Z,32.40
2022-08-14T08:54:18.494Z,32.31
2022-08-14T08:56:49.276Z,32.05
2022-08-14T08:59:34.245Z,35.01
2022-08-14T09:02:06.372Z,32.41
2022-08-14T09:04:52.842Z,30.50
2022-08-14T09:07:28.127Z,30.00
2022-08-14T09:10:00.122Z,30.57
2022-08-14T09:12:32.547Z,28.69
2022-08-14T09:15:12.243Z,30.29
2022-08-14T09:17:42.183Z,26.88
2022-08-14T09:20:12.509Z,30.08
2022-08-14T09:22:48.313Z,28.49
2022-08-14T09:25:19.803Z,31.10
2022-08-14T09:28:05.999Z,28.53
2022-08-14T09:30:36.184Z,28.23
2022-08-14T09:33:26.507Z,29.27
2022-08-14T09:36:11.843Z,29.43
2022-08-14T09:39:23.298Z,30.29
2022-08-14T09:42:33.325Z,27.58
2022-08-14T09:45:15.420Z,27.96
2022-08-14T09:47:56.251Z,26.82
2022-08-14T09:50:26.440Z,25.90
2022-08-14T09:53:04.016Z,27.85
2022-08-14T09:55:42.358Z,24.82
2022-08-14T09:58:19.370Z,25.33
2022-08-14T10:01:00.819Z,25.68
2022-08-14T10:03:34.510Z,28.30
2022-08-14T10:06:13.821Z,25.54
2022-08-14T10:08:44.435Z,24.64
2022-08-14T10:11:24.615Z,24.82
2022-08-14T10:14:29.413Z,25.43
2022-08-14T10:17:06.411Z,26.27
2022-08-14T10:19:37.091Z,24.70
2022-08-14T10:23:12.652Z,27.39
2022-08-14T10:24:59.870Z,25.17
2022-08-14T10:27:29.142Z,25.23
2022-08-14T10:30:01.195Z,23.38
2022-08-14T10:32:39.929Z,23.65
2022-08-14T10:35:17.457Z,22.67
2022-08-14T10:37:49.938Z,21.54
2022-08-14T10:40:38.087Z,21.85
2022-08-14T10:43:25.924Z,22.65
2022-08-14T10:46:04.041Z,22.46
2022-08-14T10:49:04.766Z,22.25
2022-08-14T10:51:39.608Z,22.04
2022-08-14T10:54:36.236Z,21.49
2022-08-14T10:57:18.865Z,21.70
2022-08-14T10:59:53.939Z,22.08
2022-08-14T11:02:46.026Z,20.12
2022-08-14T11:05:28.532Z,22.32
2022-08-14T11:07:56.847Z,20.99
2022-08-14T11:10:38.664Z,19.66
2022-08-14T11:13:16.603Z,20.69
2022-08-14T11:15:46.440Z,19.36
2022-08-14T11:18:20.783Z,21.65
2022-08-14T11:21:01.894Z,19.52
2022-08-14T11:23:37.795Z,21.10
2022-08-14T11:26:08.907Z,22.43
2022-08-14T11:28:47.949Z,21.71
2022-08-14T11:31:23.702Z,20.99
2022-08-14T11:33:55.596Z,21.69
2022-08-14T11:36:35.418Z,20.63
2022-08-14T11:39:33.439Z,20.80
2022-08-14T11:42:57.376Z,21.28
2022-08-14T11:44:53.619Z,21.00
2022-08-14T11:47:25.002Z,21.39
2022-08-14T11:49:54.233Z,20.98
2022-08-14T11:52:22.002Z,21.59
2022-08-14T11:54:58.624Z,21.82
2022-08-14T11:57:26.879Z,22.66
2022-08-14T12:00:08.472Z,21.04
2022-08-14T12:03:02.819Z,20.77
2022-08-14T12:05:36.692Z,22.93
2022-08-14T12:08:12.184Z,23.21
2022-08-14T12:10:43.432Z,21.95
2022-08-14T12:13:17.502Z,21.68
2022-08-14T12:15:51.405Z,22.33
2022-08-14T12:18:29.992Z,23.14
2022-08-14T12:20:59.987Z,22.69
2022-08-14T12:23:28.273Z,21.03
2022-08-14T12:26:31.620Z,21.99
2022-08-14T12:29:00.353Z,21.00
2022-08-14T12:31:28.489Z,20.91
2022-08-14T12:34:10.091Z,21.19
2022-08-14T12:36:38.584Z,21.12
2022-08-14T12:39:22.645Z,21.29
2022-08-14T12:41:57.263Z,21.67
2022-08-14T12:44:39.514Z,22.57
2022-08-14T12:47:21.343Z,22.65
2022-08-14T12:49:57.825Z,23.67
2022-08-14T12:52:30.660Z,23.25
2022-08-14T12:55:17.312Z,25.10
2022-08-14T12:57:49.373Z,23.89
2022-08-14T13:00:24.422Z,24.39
2022-08-14T13:02:55.565Z,24.37
2022-08-14T13:05:30.268Z,23.69
2022-08-14T13:07:59.493Z,24.33
2022-08-14T13:10:46.874Z,23.99
2022-08-14T13:13:17.950Z,24.14
2022-08-14T13:15:48.192Z,23.86
2022-08-14T13:18:26.622Z,24.21
2022-08-14T13:20:59.619Z,24.32
2022-08-14T13:23:36.207Z,24.20
2022-08-14T13:26:07.456Z,24.60
2022-08-14T13:29:02.353Z,24.91
2022-08-14T13:31:39.544Z,23.07
2022-08-14T13:34:14.364Z,22.57
2022-08-14T13:36:54.724Z,23.48
2022-08-14T13:39:27.441Z,22.46
2022-08-14T13:41:57.570Z,23.06
2022-08-14T13:44:28.831Z,23.04
2022-08-14T13:46:58.584Z,22.58
2022-08-14T13:49:29.067Z,23.31
2022-08-14T13:51:59.192Z,23.98
2022-08-14T13:54:31.323Z,22.76
2022-08-14T13:57:10.222Z,24.27
2022-08-14T13:59:46.410Z,23.37
2022-08-14T14:02:31.513Z,23.55
2022-08-14T14:05:01.658Z,23.31
2022-08-14T14:07:32.073Z,22.46
2022-08-14T14:10:06.179Z,23.50
2022-08-14T14:12:49.059Z,22.19
2022-08-14T14:15:33.867Z,23.09
2022-08-14T14:18:29.931Z,21.72
2022-08-14T14:21:02.571Z,23.67
2022-08-14T14:23:32.456Z,21.65
2022-08-14T14:26:00.502Z,22.17
2022-08-14T14:28:31.708Z,22.00
2022-08-14T14:31:06.154Z,22.42
2022-08-14T14:33:51.615Z,22.54
2022-08-14T14:36:28.523Z,21.74
2022-08-14T14:38:59.348Z,20.92
2022-08-14T14:41:43.772Z,21.04
2022-08-14T14:44:15.904Z,21.05
2022-08-14T14:46:50.346Z,19.71
2022-08-14T14:49:21.760Z,20.52
2022-08-14T14:51:51.310Z,20.60
2022-08-14T14:54:31.257Z,20.18
2022-08-14T14:57:02.373Z,21.02
2022-08-14T14:59:33.360Z,21.60
2022-08-14T15:02:08.057Z,22.06
2022-08-14T15:04:43.638Z,21.74
2022-08-14T15:07:12.533Z,21.31
2022-08-14T15:09:41.357Z,21.29
2022-08-14T15:12:34.149Z,20.77
2022-08-14T15:15:08.220Z,21.16
2022-08-14T15:17:41.765Z,21.42
2022-08-14T15:20:17.430Z,22.01
2022-08-14T15:22:58.632Z,21.43
2022-08-14T15:25:32.153Z,21.41
2022-08-14T15:28:01.777Z,20.99
2022-08-14T15:30:32.775Z,21.34
2022-08-14T15:33:00.762Z,21.87
2022-08-14T15:35:29.686Z,22.04
2022-08-14T15:38:08.904Z,22.76
2022-08-14T15:40:41.105Z,22.61
2022-08-14T15:43:13.982Z,22.45
2022-08-14T15:45:43.962Z,22.26
2022-08-14T15:48:22.246Z,21.82
2022-08-14T15:50:51.687Z,21.75
2022-08-14T15:53:22.705Z,21.94
2022-08-14T15:55:52.847Z,22.06
2022-08-14T15:58:25.472Z,22.32
2022-08-14T16:01:13.211Z,22.45
2022-08-14T16:03:42.561Z,22.11
2022-08-14T16:06:18.024Z,22.67
2022-08-14T16:08:50.314Z,22.21
2022-08-14T16:11:26.164Z,22.84
2022-08-14T16:13:57.464Z,23.63
2022-08-14T16:16:34.472Z,22.81
2022-08-14T16:19:19.115Z,22.18
2022-08-14T16:22:02.584Z,22.86
2022-08-14T16:25:00.310Z,22.76
2022-08-14T16:27:39.037Z,22.98
2022-08-14T16:30:24.862Z,23.96
2022-08-14T16:32:56.944Z,24.87
2022-08-14T16:35:42.508Z,26.79
2022-08-14T16:38:45.941Z,27.94
2022-08-14T16:41:27.379Z,28.49
2022-08-14T16:44:04.648Z,30.29
2022-08-14T16:46:43.581Z,30.37
2022-08-14T16:49:14.096Z,31.20
2022-08-14T16:51:43.861Z,30.92
2022-08-14T16:54:20.835Z,31.54
2022-08-14T16:57:22.705Z,32.06
2022-08-14T16:59:57.877Z,32.06
2022-08-14T17:02:44.186Z,32.44
2022-08-14T17:05:25.045Z,32.23
2022-08-14T17:08:41.825Z,32.31
2022-08-14T17:11:10.707Z,32.72
2022-08-14T17:13:59.591Z,32.98
2022-08-14T17:16:37.638Z,33.62
2022-08-14T17:19:11.606Z,33.67
2022-08-14T17:21:47.578Z,33.87
2022-08-14T17:24:56.588Z,34.29
2022-08-14T17:27:11.101Z,35.18
2022-08-14T17:29:56.733Z,35.62
2022-08-14T17:32:55.825Z,36.17
2022-08-14T17:35:26.761Z,36.30
2022-08-14T17:38:39.072Z,38.23
2022-08-14T17:41:32.954Z,36.84
2022-08-14T17:44:20.184Z,37.50
2022-08-14T17:46:55.291Z,38.37
2022-08-14T17:49:32.176Z,37.55
2022-08-14T17:52:17.492Z,38.01
2022-08-14T17:55:01.529Z,37.80
2022-08-14T17:57:35.241Z,38.79
2022-08-14T18:00:12.762Z,38.05
2022-08-14T18:02:51.140Z,38.77
2022-08-14T18:05:23.454Z,38.72
2022-08-14T18:08:34.351Z,39.68
2022-08-14T18:11:00.412Z,39.47
2022-08-14T18:13:49.953Z,38.47
2022-08-14T18:16:19.687Z,39.73
2022-08-14T18:18:48.604Z,39.06
2022-08-14T18:21:40.467Z,39.99
2022-08-14T18:24:05.091Z,41.22
2022-08-14T18:27:01.787Z,41.29
2022-08-14T18:29:31.717Z,40.78
2022-08-14T18:32:00.186Z,41.44
2022-08-14T18:34:36.955Z,41.40
2022-08-14T18:37:19.672Z,42.94
2022-08-14T18:40:01.644Z,42.59
2022-08-14T18:42:35.311Z,43.27
2022-08-14T18:45:12.355Z,42.52
2022-08-14T18:50:33.611Z,42.74
2022-08-14T18:53:07.511Z,42.80
2022-08-14T18:55:36.720Z,42.03
2022-08-14T18:58:30.885Z,41.96
2022-08-14T19:01:00.686Z,42.23
2022-08-14T19:03:36.492Z,41.22
2022-08-14T19:06:09.802Z,40.76
2022-08-14T19:08:40.073Z,41.31
2022-08-14T19:11:40.571Z,40.90
2022-08-14T19:14:14.130Z,43.10
2022-08-14T19:16:48.377Z,42.05
2022-08-14T19:19:23.863Z,43.95
2022-08-14T19:21:55.963Z,43.40
2022-08-14T19:24:45.253Z,46.38
2022-08-14T19:27:25.008Z,43.95
2022-08-14T19:30:20.246Z,43.16
2022-08-14T19:32:57.845Z,43.83
2022-08-14T19:35:48.556Z,44.11
2022-08-14T19:38:54.421Z,45.37
2022-08-14T19:41:34.137Z,46.17
2022-08-14T19:44:10.249Z,45.54
2022-08-14T19:47:02.616Z,46.55
2022-08-14T19:50:07.997Z,46.76
2022-08-14T19:52:35.246Z,47.54
2022-08-14T19:55:20.323Z,48.18
2022-08-14T19:57:58.388Z,48.29
2022-08-14T20:00:29.415Z,48.75
2022-08-14T20:03:10.470Z,49.62
2022-08-14T20:05:45.591Z,51.40
2022-08-14T20:10:59.870Z,51.14
2022-08-14T20:11:41.596Z,50.81
2022-08-14T20:14:12.136Z,50.98
2022-08-14T20:16:54.883Z,52.37
2022-08-14T20:19:28.621Z,51.81
2022-08-14T20:22:04.544Z,50.91
2022-08-14T20:24:47.602Z,51.15
2022-08-14T20:27:22.782Z,50.88
2022-08-14T20:30:33.726Z,51.06
2022-08-14T20:33:07.917Z,51.80
2022-08-14T20:35:39.023Z,53.29
2022-08-14T20:38:29.328Z,54.00
2022-08-14T20:41:08.606Z,53.32
2022-08-14T20:44:01.041Z,53.57
2022-08-14T20:46:38.781Z,55.40
2022-08-14T20:49:09.843Z,55.00
2022-08-14T20:51:54.482Z,55.09
2022-08-14T20:54:34.271Z,55.26
2022-08-14T20:57:14.107Z,54.69
2022-08-14T20:59:44.974Z,54.49
2022-08-14T21:02:38.717Z,55.02
2022-08-14T21:05:20.669Z,54.41
2022-08-14T21:07:50.321Z,54.03
2022-08-14T21:10:35.683Z,54.21
2022-08-14T21:13:27.221Z,52.95
2022-08-14T21:16:34.485Z,52.63
2022-08-14T21:18:58.963Z,53.16
2022-08-14T21:21:41.595Z,52.39
2022-08-14T21:24:38.756Z,52.80
2022-08-14T21:27:12.741Z,52.21
2022-08-14T21:29:54.056Z,52.22
2022-08-14T21:32:35.923Z,52.30
2022-08-14T21:35:08.509Z,51.96
2022-08-14T21:37:47.494Z,51.19
2022-08-14T21:40:29.654Z,53.27
2022-08-14T21:43:18.169Z,52.66
2022-08-14T21:45:54.006Z,52.88
2022-08-14T21:48:29.853Z,52.70
2022-08-14T21:51:53.418Z,51.58
2022-08-14T21:53:58.303Z,51.62
2022-08-14T21:56:38.600Z,51.01
2022-08-14T21:59:11.496Z,52.64
2022-08-14T22:02:00.578Z,53.13
2022-08-14T22:04:40.686Z,53.19
2022-08-14T22:07:17.206Z,53.77
2022-08-14T22:09:55.319Z,53.68
2022-08-14T22:12:45.496Z,54.23
2022-08-14T22:15:16.579Z,54.37
2022-08-14T22:17:44.754Z,55.39
2022-08-14T22:20:20.587Z,55.45
2022-08-14T22:22:48.687Z,55.63
2022-08-14T22:25:33.726Z,55.65
2022-08-14T22:28:07.054Z,57.06
2022-08-14T22:30:39.058Z,58.04
2022-08-14T22:33:10.127Z,57.74
2022-08-14T22:35:42.951Z,58.86
2022-08-14T22:38:35.741Z,57.73
2022-08-14T22:41:25.386Z,57.04
2022-08-14T22:43:50.151Z,56.66
2022-08-14T22:46:20.326Z,59.81
2022-08-14T22:48:49.769Z,59.32
2022-08-14T22:51:19.875Z,59.61
2022-08-14T22:53:52.513Z,59.83
2022-08-14T22:56:30.161Z,60.43
2022-08-14T22:59:00.638Z,60.27
2022-08-14T23:01:56.748Z,61.56
2022-08-14T23:04:35.498Z,59.84
2022-08-14T23:07:22.819Z,59.24
2022-08-14T23:09:57.640Z,59.35
2022-08-14T23:12:54.474Z,58.62
2022-08-14T23:15:29.799Z,58.75
2022-08-14T23:17:58.465Z,58.55
2022-08-14T23:20:29.252Z,58.84
2022-08-14T23:22:58.174Z,59.51
2022-08-14T23:25:56.973Z,59.55
2022-08-14T23:28:34.964Z,60.32
2022-08-14T23:31:11.575Z,61.21
2022-08-14T23:33:45.702Z,61.18
2022-08-14T23:36:31.516Z,61.29
2022-08-14T23:39:02.143Z,60.97
2022-08-14T23:41:46.519Z,61.46
2022-08-14T23:44:24.062Z,61.14
2022-08-14T23:46:56.859Z,61.32
2022-08-14T23:50:00.474Z,62.32
2022-08-14T23:52:56.221Z,62.53
2022-08-14T23:55:11.172Z,63.10
2022-08-14T23:57:43.556Z,65.18
